createdAt,value
2018-03-01T00:00:33.808Z,8.07
2018-03-01T00:03:03.259Z,7.90
2018-03-01T00:05:33.038Z,9.20
2018-03-01T00:08:03.341Z,8.52
2018-03-01T00:10:33.190Z,8.30
2018-03-01T00:13:03.665Z,8.55
2018-03-01T00:15:33.400Z,8.57
2018-03-01T00:18:03.033Z,8.55
2018-03-01T00:20:33.052Z,8.77
2018-03-01T00:23:02.907Z,10.07
2018-03-01T00:25:32.426Z,9.25
2018-03-01T00:28:02.799Z,8.65
2018-03-01T00:30:32.862Z,9.40
2018-03-01T00:33:03.217Z,9.10
2018-03-01T00:35:33.099Z,8.20
2018-03-01T00:38:02.967Z,9.15
2018-03-01T00:40:33.115Z,8.95
2018-03-01T00:43:04.346Z,10.15
2018-03-01T00:45:34.223Z,8.70
2018-03-01T00:48:04.467Z,9.15
2018-03-01T00:50:33.995Z,9.02
2018-03-01T00:53:04.178Z,9.35
2018-03-01T00:55:34.443Z,8.80
2018-03-01T00:58:04.216Z,7.93
2018-03-01T01:00:33.779Z,9.10
2018-03-01T01:03:04.008Z,8.68
2018-03-01T01:05:33.756Z,9.35
2018-03-01T01:08:05.748Z,8.63
2018-03-01T01:10:36.400Z,9.30
2018-03-01T01:13:06.261Z,9.88
2018-03-01T01:15:36.044Z,9.00
2018-03-01T01:18:06.340Z,9.55
2018-03-01T01:20:36.292Z,9.20
2018-03-01T01:23:06.058Z,9.90
2018-03-01T01:25:36.320Z,9.35
2018-03-01T01:28:08.892Z,9.95
2018-03-01T01:30:38.465Z,9.80
2018-03-01T01:33:08.708Z,9.73
2018-03-01T01:35:38.550Z,9.60
2018-03-01T01:38:08.326Z,10.20
2018-03-01T01:40:38.338Z,11.95
2018-03-01T01:43:08.039Z,9.05
2018-03-01T01:45:37.818Z,9.15
2018-03-01T01:48:08.528Z,9.15
2018-03-01T01:50:47.798Z,9.77
2018-03-01T01:53:18.429Z,10.65
2018-03-01T01:55:48.901Z,12.43
2018-03-01T01:58:18.465Z,9.73
2018-03-01T02:00:49.214Z,10.32
2018-03-01T02:03:18.915Z,9.40
2018-03-01T02:05:48.798Z,9.05
2018-03-01T02:08:19.299Z,8.85
2018-03-01T02:10:48.986Z,10.23
2018-03-01T02:13:19.244Z,9.18
2018-03-01T02:15:50.507Z,10.55
2018-03-01T02:18:21.020Z,9.70
2018-03-01T02:20:50.785Z,10.25
2018-03-01T02:23:20.517Z,10.10
2018-03-01T02:25:53.417Z,10.00
2018-03-01T02:28:24.744Z,9.65
2018-03-01T02:30:55.069Z,9.60
2018-03-01T02:33:25.016Z,9.35
2018-03-01T02:35:55.869Z,9.43
2018-03-01T02:38:26.507Z,10.23
2018-03-01T02:41:02.730Z,10.02
2018-03-01T02:43:32.931Z,10.52
2018-03-01T02:46:04.312Z,9.50
2018-03-01T02:48:34.458Z,9.77
2018-03-01T02:51:04.087Z,8.90
2018-03-01T02:53:34.147Z,10.38
2018-03-01T02:56:04.436Z,9.57
2018-03-01T02:58:35.462Z,9.00
2018-03-01T03:01:06.052Z,9.13
2018-03-01T03:03:35.510Z,10.25
2018-03-01T03:06:06.076Z,10.45
2018-03-01T03:08:36.031Z,10.95
2018-03-01T03:11:06.456Z,10.60
2018-03-01T03:13:41.153Z,11.68
2018-03-01T03:16:11.453Z,11.57
2018-03-01T03:18:41.425Z,10.98
2018-03-01T03:21:11.725Z,10.48
2018-03-01T03:23:43.115Z,9.80
2018-03-01T03:26:13.279Z,9.10
2018-03-01T03:28:45.913Z,9.90
2018-03-01T03:31:15.620Z,9.50
2018-03-01T03:33:45.930Z,9.77
2018-03-01T03:36:15.404Z,10.20
2018-03-01T03:38:46.254Z,9.35
2018-03-01T03:41:16.437Z,9.25
2018-03-01T03:43:46.937Z,9.90
2018-03-01T03:46:17.363Z,9.98
2018-03-01T03:48:47.600Z,10.52
2018-03-01T03:51:17.703Z,9.77
2018-03-01T03:53:47.754Z,11.25
2018-03-01T03:56:18.024Z,10.63
2018-03-01T03:58:48.525Z,10.05
2018-03-01T04:01:18.994Z,10.55
2018-03-01T04:03:48.892Z,10.13
2018-03-01T04:06:19.315Z,8.88
2018-03-01T04:08:49.957Z,9.55
2018-03-01T04:11:20.316Z,10.40
2018-03-01T04:13:49.802Z,10.98
2018-03-01T04:16:20.050Z,10.35
2018-03-01T04:18:49.557Z,9.55
2018-03-01T04:21:19.314Z,10.60
2018-03-01T04:23:49.918Z,10.43
2018-03-01T04:26:19.499Z,10.48
2018-03-01T04:28:49.278Z,9.82
2018-03-01T04:31:20.484Z,10.57
2018-03-01T04:33:50.823Z,9.15
2018-03-01T04:36:22.081Z,10.85
2018-03-01T04:38:52.871Z,9.95
2018-03-01T04:41:22.455Z,12.15
2018-03-01T04:43:52.598Z,10.95
2018-03-01T04:46:23.596Z,12.07
2018-03-01T04:48:53.292Z,11.73
2018-03-01T04:51:23.995Z,10.57
2018-03-01T04:53:54.293Z,10.45
2018-03-01T04:56:24.134Z,10.55
2018-03-01T04:58:54.547Z,10.30
2018-03-01T05:01:25.438Z,11.05
2018-03-01T05:03:55.734Z,9.98
2018-03-01T05:06:25.570Z,10.43
2018-03-01T05:08:56.127Z,10.82
2018-03-01T05:11:25.679Z,10.45
2018-03-01T05:13:55.387Z,11.07
2018-03-01T05:16:25.027Z,10.68
2018-03-01T05:18:54.703Z,10.27
2018-03-01T05:21:24.114Z,10.20
2018-03-01T05:23:54.631Z,10.30
2018-03-01T05:26:25.231Z,9.60
2018-03-01T05:28:55.655Z,10.25
2018-03-01T05:31:25.469Z,10.95
2018-03-01T05:33:55.014Z,10.13
2018-03-01T05:36:24.454Z,9.98
2018-03-01T05:38:54.565Z,10.30
2018-03-01T05:41:25.010Z,11.35
2018-03-01T05:43:54.425Z,10.98
2018-03-01T05:46:23.874Z,13.05
2018-03-01T05:48:53.730Z,12.02
2018-03-01T05:51:23.372Z,12.43
2018-03-01T05:53:52.961Z,11.52
2018-03-01T05:56:23.436Z,12.15
2018-03-01T05:58:53.193Z,11.38
2018-03-01T06:01:22.864Z,11.88
2018-03-01T06:03:53.083Z,15.10
2018-03-01T06:06:24.097Z,12.70
2018-03-01T06:08:53.680Z,12.95
2018-03-01T06:11:24.840Z,12.25
2018-03-01T06:13:54.671Z,17.85
2018-03-01T06:16:26.024Z,11.77
2018-03-01T06:18:59.854Z,11.00
2018-03-01T06:21:30.891Z,11.32
2018-03-01T06:24:01.801Z,21.70
2018-03-01T06:26:32.157Z,23.35
2018-03-01T06:29:03.166Z,13.10
2018-03-01T06:31:34.452Z,12.88
2018-03-01T06:34:04.413Z,12.63
2018-03-01T06:36:34.635Z,15.82
2018-03-01T06:39:04.477Z,18.98
2018-03-01T06:41:34.306Z,22.62
2018-03-01T06:44:04.913Z,24.45
2018-03-01T06:46:35.014Z,21.42
2018-03-01T06:49:06.488Z,23.95
2018-03-01T06:51:36.472Z,15.23
2018-03-01T06:54:06.276Z,25.80
2018-03-01T06:56:36.276Z,22.27
2018-03-01T06:59:06.058Z,24.73
2018-03-01T07:01:35.818Z,16.73
2018-03-01T07:04:05.868Z,17.70
2018-03-01T07:06:35.639Z,28.95
2018-03-01T07:09:07.271Z,22.40
2018-03-01T07:11:38.656Z,16.20
2018-03-01T07:14:08.380Z,20.23
2018-03-01T07:16:37.861Z,14.90
2018-03-01T07:19:08.342Z,30.67
2018-03-01T07:21:37.911Z,22.00
2018-03-01T07:24:08.251Z,18.62
2018-03-01T07:26:38.950Z,19.27
2018-03-01T07:29:08.665Z,22.83
2018-03-01T07:31:38.148Z,21.70
2018-03-01T07:34:08.118Z,15.88
2018-03-01T07:36:37.584Z,18.73
2018-03-01T07:39:07.421Z,16.60
2018-03-01T07:41:37.485Z,12.77
2018-03-01T07:44:06.887Z,16.52
2018-03-01T07:46:37.295Z,15.63
2018-03-01T07:49:08.087Z,13.05
2018-03-01T07:51:37.714Z,12.93
2018-03-01T07:54:07.169Z,12.77
2018-03-01T07:56:36.905Z,12.05
2018-03-01T07:59:07.219Z,13.75
2018-03-01T08:01:36.639Z,15.65
2018-03-01T08:04:06.697Z,13.15
2018-03-01T08:06:36.177Z,12.65
2018-03-01T08:09:06.053Z,13.15
2018-03-01T08:11:36.780Z,12.70
2018-03-01T08:14:06.433Z,12.95
2018-03-01T08:16:37.578Z,10.93
2018-03-01T08:19:07.414Z,13.23
2018-03-01T08:21:36.835Z,13.20
2018-03-01T08:24:06.780Z,11.88
2018-03-01T08:26:36.763Z,12.52
2018-03-01T08:29:06.288Z,12.30
2018-03-01T08:31:37.693Z,12.90
2018-03-01T08:34:09.139Z,13.77
2018-03-01T08:36:38.621Z,13.73
2018-03-01T08:39:08.474Z,12.85
2018-03-01T08:41:38.534Z,12.60
2018-03-01T08:44:09.773Z,12.35
2018-03-01T08:46:41.264Z,12.55
2018-03-01T08:49:10.730Z,12.57
2018-03-01T08:51:40.320Z,13.05
2018-03-01T08:54:15.729Z,12.70
2018-03-01T08:56:45.642Z,12.45
2018-03-01T08:59:15.471Z,13.50
2018-03-01T09:01:47.399Z,13.43
2018-03-01T09:04:17.347Z,12.95
2018-03-01T09:06:47.497Z,13.98
2018-03-01T09:09:17.383Z,12.90
2018-03-01T09:11:47.739Z,13.15
2018-03-01T09:14:18.049Z,13.57
2018-03-01T09:16:47.720Z,12.50
2018-03-01T09:19:17.167Z,12.10
2018-03-01T09:21:47.074Z,12.55
2018-03-01T09:24:16.526Z,12.73
2018-03-01T09:26:46.293Z,12.40
2018-03-01T09:29:16.017Z,12.52
2018-03-01T09:31:45.466Z,12.35
2018-03-01T09:34:14.919Z,11.40
2018-03-01T09:36:44.688Z,13.27
2018-03-01T09:39:14.180Z,13.52
2018-03-01T09:41:44.502Z,12.75
2018-03-01T09:44:15.666Z,11.27
2018-03-01T09:46:45.398Z,12.07
2018-03-01T09:49:14.842Z,13.20
2018-03-01T09:51:45.369Z,12.75
2018-03-01T09:54:14.788Z,12.27
2018-03-01T09:56:44.371Z,11.65
2018-03-01T09:59:14.198Z,14.05
2018-03-01T10:01:44.216Z,12.93
2018-03-01T10:04:14.223Z,12.35
2018-03-01T10:06:44.787Z,12.37
2018-03-01T10:09:14.558Z,13.07
2018-03-01T10:11:45.496Z,12.43
2018-03-01T10:14:15.260Z,11.90
2018-03-01T10:16:45.504Z,11.82
2018-03-01T10:19:15.121Z,12.50
2018-03-01T10:21:45.374Z,12.20
2018-03-01T10:24:15.034Z,11.70
2018-03-01T10:26:44.541Z,12.98
2018-03-01T10:29:14.738Z,12.45
2018-03-01T10:31:44.305Z,14.20
2018-03-01T10:34:13.715Z,12.95
2018-03-01T10:36:44.574Z,12.77
2018-03-01T10:39:14.090Z,12.55
2018-03-01T10:41:43.605Z,12.13
2018-03-01T10:44:14.028Z,11.07
2018-03-01T10:46:44.127Z,11.98
2018-03-01T10:49:13.537Z,12.77
2018-03-01T10:51:42.978Z,12.27
2018-03-01T10:54:12.362Z,11.45
2018-03-01T10:56:43.097Z,12.27
2018-03-01T10:59:14.063Z,10.63
2018-03-01T11:01:47.660Z,11.38
2018-03-01T11:04:17.531Z,10.95
2018-03-01T11:06:47.788Z,11.95
2018-03-01T11:09:17.922Z,13.10
2018-03-01T11:11:47.599Z,12.65
2018-03-01T11:14:16.990Z,12.73
2018-03-01T11:16:46.507Z,12.40
2018-03-01T11:19:16.088Z,12.37
2018-03-01T11:21:45.553Z,12.93
2018-03-01T11:24:15.662Z,12.18
2018-03-01T11:26:46.812Z,12.07
2018-03-01T11:29:16.578Z,12.43
2018-03-01T11:31:47.186Z,12.00
2018-03-01T11:34:16.670Z,13.70
2018-03-01T11:36:46.146Z,12.63
2018-03-01T11:39:15.848Z,12.13
2018-03-01T11:41:45.809Z,12.18
2018-03-01T11:44:15.793Z,13.65
2018-03-01T11:46:46.799Z,12.37
2018-03-01T11:49:16.453Z,11.75
2018-03-01T11:51:46.550Z,12.07
2018-03-01T11:54:16.356Z,11.70
2018-03-01T11:56:45.770Z,12.07
2018-03-01T11:59:15.272Z,11.98
2018-03-01T12:01:44.801Z,12.15
2018-03-01T12:04:14.514Z,11.12
2018-03-01T12:06:44.924Z,12.05
2018-03-01T12:09:16.036Z,12.32
2018-03-01T12:11:45.924Z,11.27
2018-03-01T12:14:15.403Z,11.75
2018-03-01T12:16:46.835Z,11.30
2018-03-01T12:19:16.342Z,11.15
2018-03-01T12:21:46.683Z,10.60
2018-03-01T12:24:17.334Z,12.43
2018-03-01T12:26:47.105Z,11.68
2018-03-01T12:29:16.976Z,11.20
2018-03-01T12:31:46.753Z,11.38
2018-03-01T12:34:17.154Z,11.70
2018-03-01T12:36:46.962Z,11.32
2018-03-01T12:39:16.473Z,12.05
2018-03-01T12:41:45.919Z,13.13
2018-03-01T12:44:15.625Z,12.15
2018-03-01T12:46:45.133Z,12.13
2018-03-01T12:49:15.097Z,12.05
2018-03-01T12:51:45.016Z,12.20
2018-03-01T12:54:14.613Z,12.07
2018-03-01T12:56:44.232Z,11.70
2018-03-01T12:59:14.055Z,11.60
2018-03-01T13:01:44.001Z,12.20
2018-03-01T13:04:13.674Z,13.10
2018-03-01T13:06:43.245Z,12.10
2018-03-01T13:09:14.536Z,12.30
2018-03-01T13:11:45.057Z,12.25
2018-03-01T13:14:14.976Z,12.35
2018-03-01T13:16:44.854Z,12.13
2018-03-01T13:19:15.844Z,12.98
2018-03-01T13:21:46.663Z,11.60
2018-03-01T13:24:17.561Z,12.95
2018-03-01T13:26:47.152Z,12.40
2018-03-01T13:29:17.111Z,11.63
2018-03-01T13:31:47.964Z,13.43
2018-03-01T13:34:17.628Z,12.05
2018-03-01T13:36:48.002Z,11.82
2018-03-01T13:39:17.852Z,12.68
2018-03-01T13:41:47.425Z,12.50
2018-03-01T13:44:17.374Z,12.48
2018-03-01T13:46:47.001Z,12.52
2018-03-01T13:49:16.601Z,11.90
2018-03-01T13:51:47.967Z,12.45
2018-03-01T13:54:17.647Z,12.30
2018-03-01T13:56:47.214Z,12.77
2018-03-01T13:59:17.121Z,10.73
2018-03-01T14:01:47.069Z,11.85
2018-03-01T14:04:16.624Z,11.70
2018-03-01T14:06:47.321Z,11.68
2018-03-01T14:09:17.232Z,11.88
2018-03-01T14:11:46.847Z,12.07
2018-03-01T14:14:16.803Z,11.80
2018-03-01T14:16:46.653Z,12.27
2018-03-01T14:19:16.270Z,11.45
2018-03-01T14:21:46.819Z,11.80
2018-03-01T14:24:16.802Z,11.73
2018-03-01T14:26:46.440Z,11.57
2018-03-01T14:29:18.011Z,11.50
2018-03-01T14:31:47.792Z,11.07
2018-03-01T14:34:17.784Z,11.60
2018-03-01T14:36:47.616Z,10.10
2018-03-01T14:39:17.100Z,10.73
2018-03-01T14:41:46.517Z,11.60
2018-03-01T14:44:17.049Z,11.60
2018-03-01T14:46:46.518Z,11.32
2018-03-01T14:49:17.198Z,11.25
2018-03-01T14:51:48.268Z,10.98
2018-03-01T14:54:18.164Z,11.05
2018-03-01T14:56:48.622Z,11.98
2018-03-01T14:59:18.290Z,10.93
2018-03-01T15:01:47.859Z,11.55
2018-03-01T15:04:19.039Z,11.50
2018-03-01T15:06:48.630Z,11.15
2018-03-01T15:09:18.092Z,10.27
2018-03-01T15:11:49.040Z,11.23
2018-03-01T15:14:18.759Z,11.77
2018-03-01T15:16:48.315Z,10.60
2018-03-01T15:19:20.796Z,10.10
2018-03-01T15:21:50.356Z,11.25
2018-03-01T15:24:20.951Z,11.40
2018-03-01T15:26:50.947Z,11.77
2018-03-01T15:29:21.758Z,12.05
2018-03-01T15:31:51.405Z,10.80
2018-03-01T15:34:20.892Z,11.43
2018-03-01T15:36:52.045Z,12.35
2018-03-01T15:39:22.569Z,12.05
2018-03-01T15:41:52.280Z,11.30
2018-03-01T15:44:22.550Z,12.70
2018-03-01T15:46:52.544Z,11.75
2018-03-01T15:49:24.240Z,11.88
2018-03-01T15:51:56.570Z,11.73
2018-03-01T15:54:26.049Z,12.55
2018-03-01T15:56:56.345Z,13.73
2018-03-01T15:59:26.117Z,12.43
2018-03-01T16:01:56.419Z,12.55
2018-03-01T16:04:27.695Z,12.60
2018-03-01T16:07:00.272Z,13.90
2018-03-01T16:09:29.850Z,13.23
2018-03-01T16:11:59.924Z,12.27
2018-03-01T16:14:30.756Z,11.60
2018-03-01T16:17:00.310Z,12.63
2018-03-01T16:19:30.189Z,12.30
2018-03-01T16:22:02.332Z,12.20
2018-03-01T16:24:33.218Z,12.35
2018-03-01T16:27:03.855Z,12.68
2018-03-01T16:29:35.025Z,12.63
2018-03-01T16:32:04.612Z,11.27
2018-03-01T16:34:34.814Z,11.82
2018-03-01T16:37:04.630Z,11.50
2018-03-01T16:39:34.639Z,12.90
2018-03-01T16:42:04.688Z,12.77
2018-03-01T16:44:35.835Z,11.98
2018-03-01T16:47:05.620Z,11.50
2018-03-01T16:49:40.272Z,11.82
2018-03-01T16:52:10.107Z,12.73
2018-03-01T16:54:40.689Z,12.13
2018-03-01T16:57:10.241Z,12.27
2018-03-01T16:59:43.004Z,12.95
2018-03-01T17:02:12.542Z,11.95
2018-03-01T17:04:42.738Z,13.02
2018-03-01T17:07:14.327Z,12.40
2018-03-01T17:09:45.591Z,12.10
2018-03-01T17:12:16.024Z,10.98
2018-03-01T17:14:46.560Z,11.43
2018-03-01T17:17:16.072Z,14.05
2018-03-01T17:19:47.920Z,13.98
2018-03-01T17:22:17.971Z,13.10
2018-03-01T17:24:47.389Z,15.32
2018-03-01T17:27:18.638Z,14.85
2018-03-01T17:29:50.531Z,15.25
2018-03-01T17:32:20.593Z,20.25
2018-03-01T17:34:50.988Z,37.05
2018-03-01T17:37:20.869Z,22.25
2018-03-01T17:39:50.851Z,17.77
2018-03-01T17:42:22.621Z,18.25
2018-03-01T17:44:54.967Z,15.10
2018-03-01T17:47:24.562Z,18.65
2018-03-01T17:49:54.132Z,16.30
2018-03-01T17:52:25.431Z,19.75
2018-03-01T17:54:54.930Z,23.83
2018-03-01T17:57:24.396Z,15.88
2018-03-01T17:59:59.221Z,20.40
2018-03-01T18:02:29.445Z,19.58
2018-03-01T18:05:00.960Z,21.55
2018-03-01T18:07:30.540Z,22.87
2018-03-01T18:10:03.687Z,19.00
2018-03-01T18:12:34.379Z,17.62
2018-03-01T18:15:04.287Z,19.87
2018-03-01T18:17:35.084Z,12.60
2018-03-01T18:20:05.179Z,17.17
2018-03-01T18:22:35.475Z,12.27
2018-03-01T18:25:05.960Z,15.35
2018-03-01T18:27:37.562Z,17.55
2018-03-01T18:30:07.917Z,13.43
2018-03-01T18:32:37.931Z,13.48
2018-03-01T18:35:08.891Z,23.12
2018-03-01T18:37:39.175Z,20.67
2018-03-01T18:40:09.336Z,23.73
2018-03-01T18:42:44.330Z,25.80
2018-03-01T18:45:14.031Z,20.12
2018-03-01T18:47:49.389Z,22.00
2018-03-01T18:50:18.829Z,22.80
2018-03-01T18:52:51.234Z,19.85
2018-03-01T18:55:22.046Z,16.50
2018-03-01T18:57:53.342Z,18.67
2018-03-01T19:00:25.710Z,19.35
2018-03-01T19:02:59.791Z,20.73
2018-03-01T19:05:30.330Z,21.23
2018-03-01T19:08:01.961Z,19.55
2018-03-01T19:10:31.467Z,21.10
2018-03-01T19:13:03.480Z,22.20
2018-03-01T19:15:33.329Z,19.70
2018-03-01T19:18:03.405Z,22.45
2018-03-01T19:20:32.944Z,18.25
2018-03-01T19:23:04.244Z,20.80
2018-03-01T19:25:34.143Z,19.20
2018-03-01T19:28:03.742Z,15.43
2018-03-01T19:30:34.729Z,15.68
2018-03-01T19:33:04.700Z,14.57
2018-03-01T19:35:35.695Z,14.90
2018-03-01T19:38:05.970Z,15.55
2018-03-01T19:40:35.986Z,12.77
2018-03-01T19:43:06.970Z,13.95
2018-03-01T19:45:39.087Z,15.32
2018-03-01T19:48:08.662Z,14.02
2018-03-01T19:50:38.131Z,13.02
2018-03-01T19:53:08.463Z,12.00
2018-03-01T19:55:38.043Z,14.98
2018-03-01T19:58:09.911Z,15.13
2018-03-01T20:00:39.707Z,12.77
2018-03-01T20:03:09.710Z,15.40
2018-03-01T20:05:39.685Z,14.20
2018-03-01T20:08:10.475Z,14.65
2018-03-01T20:10:41.378Z,13.30
2018-03-01T20:13:11.026Z,12.10
2018-03-01T20:15:41.170Z,12.63
2018-03-01T20:18:11.486Z,13.70
2018-03-01T20:20:41.864Z,12.15
2018-03-01T20:23:11.736Z,12.50
2018-03-01T20:25:41.174Z,12.45
2018-03-01T20:28:10.748Z,13.50
2018-03-01T20:30:41.167Z,12.35
2018-03-01T20:33:10.570Z,12.50
2018-03-01T20:35:40.203Z,13.60
2018-03-01T20:38:09.967Z,13.70
2018-03-01T20:40:39.384Z,13.68
2018-03-01T20:43:08.941Z,11.80
2018-03-01T20:45:39.049Z,13.02
2018-03-01T20:48:08.956Z,12.73
2018-03-01T20:50:38.402Z,11.52
2018-03-01T20:53:08.359Z,12.10
2018-03-01T20:55:38.687Z,13.13
2018-03-01T20:58:08.385Z,12.90
2018-03-01T21:00:38.557Z,12.40
2018-03-01T21:03:08.038Z,12.27
2018-03-01T21:05:37.515Z,12.50
2018-03-01T21:08:07.396Z,12.95
2018-03-01T21:10:37.175Z,12.43
2018-03-01T21:13:06.873Z,12.30
2018-03-01T21:15:36.914Z,11.57
2018-03-01T21:18:06.378Z,13.27
2018-03-01T21:20:35.817Z,11.82
2018-03-01T21:23:05.691Z,11.40
2018-03-01T21:25:35.136Z,12.55
2018-03-01T21:28:06.273Z,12.90
2018-03-01T21:30:36.898Z,12.98
2018-03-01T21:33:06.803Z,12.35
2018-03-01T21:35:36.491Z,11.93
2018-03-01T21:38:06.352Z,11.88
2018-03-01T21:40:35.945Z,12.35
2018-03-01T21:43:05.782Z,13.23
2018-03-01T21:45:35.249Z,11.90
2018-03-01T21:48:04.776Z,13.00
2018-03-01T21:50:34.552Z,13.68
2018-03-01T21:53:04.910Z,12.88
2018-03-01T21:55:34.394Z,13.10
2018-03-01T21:58:03.830Z,11.75
2018-03-01T22:00:33.891Z,12.07
2018-03-01T22:03:04.315Z,12.90
2018-03-01T22:05:34.904Z,12.32
2018-03-01T22:08:06.025Z,12.85
2018-03-01T22:10:37.264Z,13.25
2018-03-01T22:13:07.533Z,16.35
2018-03-01T22:15:37.798Z,15.23
2018-03-01T22:18:07.492Z,13.25
2018-03-01T22:20:37.615Z,13.07
2018-03-01T22:23:07.679Z,13.90
2018-03-01T22:25:38.343Z,12.60
2018-03-01T22:28:08.045Z,13.02
2018-03-01T22:30:37.707Z,13.90
2018-03-01T22:33:07.171Z,13.25
2018-03-01T22:35:38.969Z,13.65
2018-03-01T22:38:09.930Z,13.00
2018-03-01T22:40:40.758Z,12.60
2018-03-01T22:43:10.741Z,15.10
2018-03-01T22:45:41.491Z,14.05
2018-03-01T22:48:11.381Z,13.23
2018-03-01T22:50:41.092Z,13.85
2018-03-01T22:53:10.974Z,13.62
2018-03-01T22:55:41.734Z,13.70
2018-03-01T22:58:11.193Z,13.00
2018-03-01T23:00:49.561Z,16.00
2018-03-01T23:03:19.042Z,14.00
2018-03-01T23:05:49.317Z,17.70
2018-03-01T23:08:19.160Z,17.80
2018-03-01T23:10:49.006Z,18.75
2018-03-01T23:13:18.661Z,19.83
2018-03-01T23:15:48.114Z,19.35
2018-03-01T23:18:17.934Z,25.40
2018-03-01T23:20:49.123Z,17.45
2018-03-01T23:23:19.246Z,15.63
2018-03-01T23:25:48.678Z,21.85
2018-03-01T23:28:18.183Z,24.45
2018-03-01T23:30:47.617Z,21.20
2018-03-01T23:33:17.828Z,15.68
2018-03-01T23:35:48.245Z,16.85
2018-03-01T23:38:18.003Z,15.02
2018-03-01T23:40:47.686Z,15.23
2018-03-01T23:43:17.684Z,15.93
2018-03-01T23:46:24.281Z,14.68
2018-03-01T23:48:54.853Z,17.52
2018-03-01T23:51:24.491Z,15.75
2018-03-01T23:53:55.205Z,16.62
2018-03-01T23:56:26.162Z,17.23
2018-03-01T23:58:59.515Z,16.50
